createdAt,value
2023-03-14T00:02:11.172Z,0.25
2023-03-14T00:04:43.501Z,0.26
2023-03-14T00:07:15.930Z,0.28
2023-03-14T00:09:47.825Z,0.25
2023-03-14T00:12:19.936Z,0.16
2023-03-14T00:14:51.764Z,0.24
2023-03-14T00:17:23.386Z,0.26
2023-03-14T00:19:55.075Z,0.28
2023-03-14T00:22:27.857Z,0.25
2023-03-14T00:24:59.515Z,0.25
2023-03-14T00:27:31.342Z,0.34
2023-03-14T00:30:03.665Z,0.32
2023-03-14T00:32:35.334Z,0.27
2023-03-14T00:35:07.294Z,0.56
2023-03-14T00:37:38.982Z,0.35
2023-03-14T00:40:11.625Z,0.27
2023-03-14T00:42:43.256Z,0.30
2023-03-14T00:45:14.955Z,0.25
2023-03-14T00:47:46.633Z,0.37
2023-03-14T00:50:18.620Z,0.15
2023-03-14T00:52:51.169Z,0.36
2023-03-14T00:55:22.874Z,0.38
2023-03-14T00:57:54.539Z,0.30
2023-03-14T01:00:26.178Z,0.21
2023-03-14T01:02:57.885Z,0.17
2023-03-14T01:05:29.985Z,0.26
2023-03-14T01:10:59.592Z,0.40
2023-03-14T01:13:50.772Z,0.33
2023-03-14T01:16:27.158Z,0.38
2023-03-14T01:21:49.136Z,0.23
2023-03-14T01:27:48.136Z,0.30
2023-03-14T01:33:47.330Z,0.26
2023-03-14T01:43:19.613Z,0.34
2023-03-14T01:46:26.036Z,0.27
2023-03-14T01:49:03.208Z,0.22
2023-03-14T01:54:59.454Z,0.18
2023-03-14T02:07:17.992Z,0.26
2023-03-14T02:10:03.410Z,0.31
2023-03-14T02:13:14.593Z,0.32
2023-03-14T02:16:06.036Z,0.35
2023-03-14T02:19:07.598Z,0.26
2023-03-14T02:22:18.031Z,0.24
2023-03-14T02:31:27.392Z,0.28
2023-03-14T02:34:17.921Z,0.30
2023-03-14T02:36:49.591Z,0.23
2023-03-14T02:39:32.949Z,0.30
2023-03-14T02:42:05.077Z,0.40
2023-03-14T02:44:36.931Z,0.27
2023-03-14T02:47:09.034Z,0.26
2023-03-14T02:49:41.027Z,0.25
2023-03-14T02:52:12.647Z,0.37
2023-03-14T02:54:44.283Z,0.35
2023-03-14T02:57:15.947Z,0.27
2023-03-14T02:59:47.623Z,0.23
2023-03-14T03:02:22.655Z,0.27
2023-03-14T03:04:54.553Z,0.23
2023-03-14T03:07:26.260Z,0.23
2023-03-14T03:10:00.163Z,0.25
2023-03-14T03:12:31.937Z,0.27
2023-03-14T03:15:04.227Z,0.37
2023-03-14T03:17:39.885Z,0.33
2023-03-14T03:20:12.032Z,0.25
2023-03-14T03:22:44.458Z,0.28
2023-03-14T03:25:16.721Z,0.36
2023-03-14T03:27:50.936Z,0.32
2023-03-14T03:30:23.820Z,0.31
2023-03-14T03:32:55.427Z,0.25
2023-03-14T03:38:16.630Z,0.32
2023-03-14T03:40:49.471Z,0.25
2023-03-14T03:43:21.613Z,0.32
2023-03-14T03:45:54.528Z,0.36
2023-03-14T03:48:28.555Z,0.22
2023-03-14T03:51:00.352Z,0.31
2023-03-14T03:53:33.816Z,0.31
2023-03-14T03:56:10.395Z,0.26
2023-03-14T03:58:42.728Z,0.36
2023-03-14T04:01:14.978Z,0.36
2023-03-14T04:03:46.729Z,0.29
2023-03-14T04:06:18.600Z,0.41
2023-03-14T04:08:52.343Z,0.25
2023-03-14T04:11:40.172Z,0.41
2023-03-14T04:14:33.004Z,0.32
2023-03-14T04:17:16.798Z,0.31
2023-03-14T04:19:48.445Z,0.33
2023-03-14T04:22:20.732Z,0.25
2023-03-14T04:24:55.232Z,0.31
2023-03-14T04:27:27.318Z,0.27
2023-03-14T04:30:09.713Z,0.31
2023-03-14T04:32:56.126Z,0.26
2023-03-14T04:35:32.311Z,0.29
2023-03-14T04:38:07.857Z,0.31
2023-03-14T04:40:42.310Z,0.27
2023-03-14T04:43:14.750Z,0.21
2023-03-14T04:45:59.346Z,0.25
2023-03-14T04:48:30.959Z,0.33
2023-03-14T04:51:03.956Z,0.24
2023-03-14T04:53:38.145Z,0.27
2023-03-14T04:56:13.667Z,0.33
2023-03-14T04:58:47.420Z,0.25
2023-03-14T05:01:22.899Z,0.27
2023-03-14T05:04:20.798Z,0.31
2023-03-14T05:07:15.064Z,0.31
2023-03-14T05:10:19.058Z,0.23
2023-03-14T05:13:08.697Z,0.32
2023-03-14T05:16:18.929Z,0.38
2023-03-14T05:19:13.492Z,0.28
2023-03-14T05:22:04.061Z,0.27
2023-03-14T05:24:53.945Z,0.34
2023-03-14T05:27:44.203Z,0.40
2023-03-14T05:30:36.081Z,0.39
2023-03-14T05:33:27.082Z,0.32
2023-03-14T05:36:13.350Z,0.35
2023-03-14T05:39:03.871Z,0.31
2023-03-14T05:41:44.578Z,0.38
2023-03-14T05:44:36.436Z,0.32
2023-03-14T05:47:16.449Z,0.37
2023-03-14T05:49:48.025Z,0.38
2023-03-14T05:52:55.028Z,0.36
2023-03-14T05:55:44.869Z,0.37
2023-03-14T05:58:34.908Z,0.38
2023-03-14T06:01:24.221Z,0.47
2023-03-14T06:04:09.622Z,0.36
2023-03-14T06:06:41.530Z,0.43
2023-03-14T06:09:15.413Z,0.57
2023-03-14T06:11:48.809Z,0.37
2023-03-14T06:14:20.476Z,0.31
2023-03-14T06:16:53.885Z,0.46
2023-03-14T06:19:28.169Z,0.39
2023-03-14T06:21:59.895Z,0.45
2023-03-14T06:24:32.292Z,0.42
2023-03-14T06:27:05.398Z,0.56
2023-03-14T06:29:37.366Z,0.65
2023-03-14T06:32:08.995Z,0.77
2023-03-14T06:34:42.595Z,0.54
2023-03-14T06:37:14.619Z,0.57
2023-03-14T06:39:46.728Z,0.54
2023-03-14T06:42:28.183Z,0.55
2023-03-14T06:45:00.102Z,0.75
2023-03-14T06:47:32.176Z,0.68
2023-03-14T06:50:05.622Z,0.61
2023-03-14T06:52:38.159Z,0.59
2023-03-14T06:55:10.496Z,0.53
2023-03-14T06:57:42.671Z,0.93
2023-03-14T07:00:14.903Z,0.86
2023-03-14T07:02:46.701Z,0.67
2023-03-14T07:05:29.940Z,0.42
2023-03-14T07:08:01.604Z,0.55
2023-03-14T07:10:34.403Z,0.53
2023-03-14T07:13:06.062Z,0.48
2023-03-14T07:15:41.282Z,0.61
2023-03-14T07:18:14.944Z,0.51
2023-03-14T07:20:48.166Z,0.56
2023-03-14T07:23:20.572Z,0.60
2023-03-14T07:25:54.828Z,0.55
2023-03-14T07:28:29.086Z,0.53
2023-03-14T07:31:12.273Z,0.67
2023-03-14T07:33:44.483Z,0.47
2023-03-14T07:36:17.066Z,0.52
2023-03-14T07:38:50.168Z,0.61
2023-03-14T07:41:36.955Z,0.66
2023-03-14T07:44:27.887Z,0.46
2023-03-14T07:46:59.637Z,0.51
2023-03-14T07:49:32.486Z,0.47
2023-03-14T07:52:04.145Z,0.51
2023-03-14T07:54:35.782Z,0.49
2023-03-14T07:57:07.409Z,0.51
2023-03-14T07:59:38.961Z,0.44
2023-03-14T08:02:14.411Z,0.44
2023-03-14T08:04:46.139Z,0.37
2023-03-14T08:07:18.029Z,0.50
2023-03-14T08:09:49.613Z,0.37
2023-03-14T08:12:21.214Z,0.41
2023-03-14T08:14:52.971Z,0.54
2023-03-14T08:17:24.643Z,0.58
2023-03-14T08:19:56.279Z,0.49
2023-03-14T08:22:27.971Z,0.43
2023-03-14T08:24:59.544Z,0.34
2023-03-14T08:27:31.266Z,0.46
2023-03-14T08:30:03.067Z,0.35
2023-03-14T08:32:34.869Z,0.42
2023-03-14T08:35:07.400Z,0.33
2023-03-14T08:37:39.182Z,0.43
2023-03-14T08:40:11.399Z,0.41
2023-03-14T08:42:42.994Z,0.41
2023-03-14T08:45:16.644Z,0.46
2023-03-14T08:47:48.343Z,0.51
2023-03-14T08:50:20.031Z,0.47
2023-03-14T08:52:51.682Z,0.90
2023-03-14T08:55:23.270Z,0.50
2023-03-14T08:57:54.883Z,0.43
2023-03-14T09:00:26.491Z,0.64
2023-03-14T09:02:58.150Z,0.67
2023-03-14T09:05:29.748Z,0.54
2023-03-14T09:08:02.155Z,0.64
2023-03-14T09:10:33.746Z,0.74
2023-03-14T09:13:05.346Z,0.79
2023-03-14T09:15:37.363Z,0.76
2023-03-14T09:18:09.088Z,0.77
2023-03-14T09:20:40.954Z,0.60
2023-03-14T09:23:12.552Z,0.83
2023-03-14T09:25:44.143Z,0.68
2023-03-14T09:28:15.765Z,0.80
2023-03-14T09:30:47.366Z,0.64
2023-03-14T09:33:19.426Z,0.76
2023-03-14T09:35:51.111Z,0.65
2023-03-14T09:38:22.679Z,0.73
2023-03-14T09:40:56.158Z,0.69
2023-03-14T09:43:34.446Z,0.79
2023-03-14T09:46:06.934Z,0.84
2023-03-14T09:48:38.849Z,0.67
2023-03-14T09:51:20.927Z,0.60
2023-03-14T09:53:52.827Z,0.63
2023-03-14T09:56:29.064Z,0.81
2023-03-14T09:59:12.208Z,0.94
2023-03-14T10:01:43.882Z,0.73
2023-03-14T10:04:22.549Z,0.76
2023-03-14T10:06:54.134Z,0.69
2023-03-14T10:09:25.740Z,0.69
2023-03-14T10:11:59.102Z,0.45
2023-03-14T10:14:34.830Z,0.36
2023-03-14T10:17:13.119Z,0.30
2023-03-14T10:20:00.842Z,0.41
2023-03-14T10:22:33.627Z,0.38
2023-03-14T10:25:21.010Z,0.41
2023-03-14T10:27:52.587Z,0.31
2023-03-14T10:30:37.034Z,0.43
2023-03-14T10:33:20.655Z,0.37
2023-03-14T10:36:19.813Z,0.36
2023-03-14T10:39:05.717Z,0.49
2023-03-14T10:41:37.390Z,0.44
2023-03-14T10:44:13.845Z,0.59
2023-03-14T10:46:45.500Z,0.77
2023-03-14T10:49:37.163Z,0.79
2023-03-14T10:52:31.113Z,0.64
2023-03-14T10:55:13.411Z,0.41
2023-03-14T10:57:45.505Z,0.42
2023-03-14T11:00:23.261Z,0.35
2023-03-14T11:03:14.445Z,0.29
2023-03-14T11:05:59.112Z,0.39
2023-03-14T11:08:50.437Z,0.39
2023-03-14T11:11:30.843Z,0.54
2023-03-14T11:14:34.559Z,0.53
2023-03-14T11:17:15.757Z,0.52
2023-03-14T11:19:50.212Z,0.49
2023-03-14T11:22:33.808Z,0.64
2023-03-14T11:25:05.373Z,0.14
2023-03-14T11:27:45.036Z,0.13
2023-03-14T11:30:28.165Z,0.25
2023-03-14T11:33:14.141Z,0.15
2023-03-14T11:36:06.551Z,0.25
2023-03-14T11:38:56.080Z,0.21
2023-03-14T11:41:37.195Z,0.39
2023-03-14T11:44:25.748Z,0.29
2023-03-14T11:47:23.910Z,0.55
2023-03-14T11:50:19.649Z,0.31
2023-03-14T11:53:15.219Z,0.30
2023-03-14T11:55:48.099Z,0.45
2023-03-14T11:58:36.265Z,0.32
2023-03-14T12:01:15.080Z,0.18
2023-03-14T12:03:58.324Z,0.43
2023-03-14T12:06:47.167Z,0.60
2023-03-14T12:09:22.936Z,0.37
2023-03-14T12:12:02.402Z,0.28
2023-03-14T12:14:37.593Z,0.32
2023-03-14T12:17:22.479Z,0.36
2023-03-14T12:20:16.310Z,0.49
2023-03-14T12:22:52.872Z,0.42
2023-03-14T12:25:28.434Z,0.46
2023-03-14T12:28:20.894Z,0.37
2023-03-14T12:30:52.620Z,0.38
2023-03-14T12:33:29.379Z,0.48
2023-03-14T12:36:04.362Z,0.51
2023-03-14T12:38:36.724Z,0.48
2023-03-14T12:41:35.534Z,0.51
2023-03-14T12:44:43.719Z,0.68
2023-03-14T12:47:21.253Z,0.41
2023-03-14T12:49:55.063Z,0.47
2023-03-14T12:52:46.373Z,0.58
2023-03-14T12:55:41.284Z,0.63
2023-03-14T12:58:36.202Z,0.54
2023-03-14T13:01:18.271Z,0.55
2023-03-14T13:03:57.969Z,0.53
2023-03-14T13:06:57.999Z,0.60
2023-03-14T13:09:29.554Z,0.57
2023-03-14T13:12:08.238Z,0.80
2023-03-14T13:14:50.462Z,0.61
2023-03-14T13:17:37.323Z,0.70
2023-03-14T13:20:28.150Z,0.58
2023-03-14T13:22:59.936Z,0.88
2023-03-14T13:25:35.473Z,0.65
2023-03-14T13:28:11.217Z,0.86
2023-03-14T13:30:46.659Z,0.86
2023-03-14T13:33:21.228Z,0.68
2023-03-14T13:36:05.235Z,0.73
2023-03-14T13:38:37.371Z,0.62
2023-03-14T13:41:09.343Z,0.68
2023-03-14T13:43:44.798Z,0.67
2023-03-14T13:46:23.213Z,0.70
2023-03-14T13:49:06.175Z,0.73
2023-03-14T13:51:40.732Z,0.93
2023-03-14T13:54:18.501Z,0.92
2023-03-14T13:57:00.973Z,0.84
2023-03-14T13:59:35.207Z,0.73
2023-03-14T14:02:18.528Z,0.72
2023-03-14T14:04:50.403Z,0.60
2023-03-14T14:07:22.537Z,0.51
2023-03-14T14:09:56.021Z,0.66
2023-03-14T14:12:44.989Z,0.64
2023-03-14T14:15:21.988Z,0.55
2023-03-14T14:17:58.486Z,0.55
2023-03-14T14:20:36.364Z,0.34
2023-03-14T14:23:13.975Z,0.10
2023-03-14T14:25:47.024Z,0.16
2023-03-14T14:28:26.221Z,0.23
2023-03-14T14:31:18.676Z,0.31
2023-03-14T14:33:59.284Z,0.42
2023-03-14T14:36:44.665Z,0.41
2023-03-14T14:39:22.337Z,0.32
2023-03-14T14:41:54.752Z,0.42
2023-03-14T14:44:33.527Z,0.73
2023-03-14T14:47:05.916Z,0.98
2023-03-14T14:49:37.494Z,0.89
2023-03-14T14:52:22.221Z,0.65
2023-03-14T14:54:59.766Z,0.57
2023-03-14T14:57:39.523Z,0.46
2023-03-14T15:00:21.450Z,0.59
2023-03-14T15:03:01.214Z,1.11
2023-03-14T15:05:32.950Z,0.83
2023-03-14T15:08:10.599Z,0.54
2023-03-14T15:10:42.206Z,0.60
2023-03-14T15:13:14.554Z,0.65
2023-03-14T15:15:47.538Z,0.93
2023-03-14T15:18:19.725Z,0.82
2023-03-14T15:20:52.199Z,0.61
2023-03-14T15:23:23.857Z,0.56
2023-03-14T15:25:56.555Z,0.56
2023-03-14T15:28:30.511Z,0.50
2023-03-14T15:31:02.137Z,0.42
2023-03-14T15:33:33.802Z,0.36
2023-03-14T15:36:07.763Z,0.59
2023-03-14T15:38:39.411Z,0.63
2023-03-14T15:41:11.068Z,0.69
2023-03-14T15:43:42.768Z,0.68
2023-03-14T15:46:14.963Z,0.60
2023-03-14T15:48:47.793Z,0.58
2023-03-14T15:51:20.127Z,0.71
2023-03-14T15:53:51.939Z,0.71
2023-03-14T15:56:23.533Z,1.04
2023-03-14T15:58:55.242Z,0.69
2023-03-14T16:01:26.915Z,0.57
2023-03-14T16:03:58.861Z,0.55
2023-03-14T16:06:31.071Z,0.45
2023-03-14T16:09:02.670Z,0.65
2023-03-14T16:11:34.365Z,0.70
2023-03-14T16:14:06.456Z,0.68
2023-03-14T16:16:38.176Z,0.60
2023-03-14T16:19:09.766Z,0.81
2023-03-14T16:21:41.443Z,0.58
2023-03-14T16:24:13.051Z,0.57
2023-03-14T16:26:45.424Z,0.55
2023-03-14T16:29:17.007Z,0.71
2023-03-14T16:31:48.666Z,0.84
2023-03-14T16:34:20.258Z,0.63
2023-03-14T16:36:51.846Z,0.70
2023-03-14T16:39:23.500Z,0.88
2023-03-14T16:41:58.950Z,0.82
2023-03-14T16:44:30.696Z,0.75
2023-03-14T16:47:02.383Z,0.69
2023-03-14T16:49:34.152Z,0.73
2023-03-14T16:52:06.592Z,0.74
2023-03-14T16:54:38.262Z,0.82
2023-03-14T16:57:12.115Z,0.95
2023-03-14T16:59:43.690Z,1.00
2023-03-14T17:02:15.249Z,1.14
2023-03-14T17:04:46.791Z,1.04
2023-03-14T17:07:18.314Z,1.04
2023-03-14T17:09:49.874Z,0.97
2023-03-14T17:12:21.613Z,0.99
2023-03-14T17:14:53.241Z,1.03
2023-03-14T17:17:24.946Z,1.02
2023-03-14T17:19:56.608Z,1.17
2023-03-14T17:22:31.696Z,1.00
2023-03-14T17:25:04.888Z,0.88
2023-03-14T17:27:36.481Z,1.11
2023-03-14T17:30:08.761Z,1.10
2023-03-14T17:32:40.436Z,1.21
2023-03-14T17:35:12.135Z,1.24
2023-03-14T17:37:43.707Z,1.56
2023-03-14T17:40:15.558Z,1.35
2023-03-14T17:42:47.167Z,1.12
2023-03-14T17:45:18.907Z,1.33
2023-03-14T17:47:51.453Z,1.04
2023-03-14T17:50:23.515Z,1.35
2023-03-14T17:52:55.499Z,1.00
2023-03-14T17:55:27.249Z,0.90
2023-03-14T17:57:58.955Z,1.23
2023-03-14T18:00:30.552Z,1.33
2023-03-14T18:03:02.472Z,1.41
2023-03-14T18:05:34.210Z,1.44
2023-03-14T18:08:06.669Z,1.44
2023-03-14T18:10:38.335Z,1.33
2023-03-14T18:13:10.063Z,1.49
2023-03-14T18:15:41.781Z,1.84
2023-03-14T18:18:13.391Z,2.05
2023-03-14T18:20:52.982Z,1.81
2023-03-14T18:23:24.683Z,1.29
2023-03-14T18:25:58.978Z,1.31
2023-03-14T18:28:31.374Z,1.23
2023-03-14T18:31:07.730Z,1.48
2023-03-14T18:33:39.409Z,1.81
2023-03-14T18:36:12.690Z,2.05
2023-03-14T18:38:44.961Z,1.94
2023-03-14T18:41:19.067Z,2.02
2023-03-14T18:43:51.793Z,1.89
2023-03-14T18:46:23.612Z,1.90
2023-03-14T18:48:55.977Z,2.68
2023-03-14T18:51:28.249Z,3.37
2023-03-14T18:54:16.137Z,2.47
2023-03-14T18:56:47.896Z,2.77
2023-03-14T18:59:19.606Z,2.79
2023-03-14T19:01:51.277Z,2.45
2023-03-14T19:04:23.048Z,1.99
2023-03-14T19:06:54.690Z,2.32
2023-03-14T19:09:26.382Z,5.18
2023-03-14T19:11:57.959Z,6.06
2023-03-14T19:14:29.594Z,6.94
2023-03-14T19:17:01.317Z,2.05
2023-03-14T19:19:33.111Z,8.24
2023-03-14T19:22:04.734Z,22.34
2023-03-14T19:24:36.352Z,21.76
2023-03-14T19:27:07.958Z,7.69
2023-03-14T19:29:39.625Z,11.42
2023-03-14T19:32:12.773Z,6.19
2023-03-14T19:34:44.583Z,3.33
2023-03-14T19:37:16.188Z,2.10
2023-03-14T19:39:47.829Z,1.92
2023-03-14T19:42:19.474Z,1.82
2023-03-14T19:44:51.145Z,1.75
2023-03-14T19:47:22.751Z,4.22
2023-03-14T19:49:54.510Z,2.46
2023-03-14T19:52:27.206Z,1.78
2023-03-14T19:54:58.842Z,1.64
2023-03-14T19:57:30.572Z,2.44
2023-03-14T20:00:02.175Z,2.69
2023-03-14T20:02:45.003Z,4.76
2023-03-14T20:05:16.797Z,3.02
2023-03-14T20:07:48.424Z,1.73
2023-03-14T20:10:21.747Z,1.40
2023-03-14T20:12:53.362Z,3.99
2023-03-14T20:15:25.064Z,4.38
2023-03-14T20:17:56.706Z,3.82
2023-03-14T20:20:28.385Z,4.70
2023-03-14T20:23:00.197Z,4.51
2023-03-14T20:25:31.810Z,1.81
2023-03-14T20:28:03.711Z,2.07
2023-03-14T20:30:35.400Z,2.21
2023-03-14T20:33:07.192Z,1.76
2023-03-14T20:35:39.357Z,2.12
2023-03-14T20:38:10.956Z,1.80
2023-03-14T20:40:45.870Z,1.63
2023-03-14T20:43:17.511Z,1.88
2023-03-14T20:45:56.424Z,1.91
2023-03-14T20:48:31.452Z,2.37
2023-03-14T20:51:03.109Z,2.20
2023-03-14T20:53:34.770Z,1.85
2023-03-14T20:56:06.922Z,2.22
2023-03-14T20:58:38.535Z,1.81
2023-03-14T21:03:59.235Z,2.14
2023-03-14T21:06:31.807Z,2.11
2023-03-14T21:09:04.312Z,2.85
2023-03-14T21:11:36.763Z,2.02
2023-03-14T21:14:08.311Z,2.32
2023-03-14T21:16:39.946Z,1.98
2023-03-14T21:19:12.267Z,2.18
2023-03-14T21:21:43.984Z,2.16
2023-03-14T21:24:16.017Z,2.03
2023-03-14T21:26:47.589Z,2.03
2023-03-14T21:29:19.930Z,1.65
2023-03-14T21:31:52.417Z,1.71
2023-03-14T21:34:23.945Z,1.87
2023-03-14T21:36:55.469Z,1.88
2023-03-14T21:39:27.211Z,2.00
2023-03-14T21:41:58.689Z,1.97
2023-03-14T21:44:30.185Z,1.91
2023-03-14T21:47:03.746Z,1.92
2023-03-14T21:49:36.247Z,2.10
2023-03-14T21:52:10.599Z,2.12
2023-03-14T21:54:42.212Z,2.24
2023-03-14T21:57:15.483Z,1.98
2023-03-14T21:59:46.986Z,1.75
2023-03-14T22:02:19.704Z,1.80
2023-03-14T22:04:51.410Z,1.97
2023-03-14T22:07:22.997Z,2.02
2023-03-14T22:09:54.592Z,2.11
2023-03-14T22:12:26.149Z,2.14
2023-03-14T22:14:57.666Z,2.02
2023-03-14T22:17:29.393Z,2.06
2023-03-14T22:20:01.648Z,2.03
2023-03-14T22:22:33.215Z,1.76
2023-03-14T22:25:05.651Z,1.84
2023-03-14T22:27:37.179Z,1.64
2023-03-14T22:30:09.691Z,2.10
2023-03-14T22:32:41.263Z,2.06
2023-03-14T22:35:12.818Z,2.00
2023-03-14T22:37:44.345Z,2.01
2023-03-14T22:40:16.086Z,1.75
2023-03-14T22:42:47.627Z,2.30
2023-03-14T22:45:19.316Z,1.96
2023-03-14T22:47:50.908Z,1.76
2023-03-14T22:50:22.472Z,1.61
2023-03-14T22:52:54.037Z,1.71
2023-03-14T22:55:25.953Z,1.41
2023-03-14T22:57:57.657Z,1.68
2023-03-14T23:00:29.234Z,1.55
2023-03-14T23:03:01.007Z,1.44
2023-03-14T23:05:33.498Z,1.25
2023-03-14T23:08:05.313Z,1.36
2023-03-14T23:10:36.899Z,1.22
2023-03-14T23:13:09.324Z,1.28
2023-03-14T23:15:42.406Z,1.12
2023-03-14T23:18:13.932Z,1.05
2023-03-14T23:20:48.057Z,1.19
2023-03-14T23:23:19.680Z,1.17
2023-03-14T23:25:53.729Z,1.41
2023-03-14T23:28:25.468Z,1.52
2023-03-14T23:30:58.877Z,1.32
2023-03-14T23:33:30.378Z,1.28
2023-03-14T23:36:03.077Z,1.09
2023-03-14T23:38:35.031Z,1.19
2023-03-14T23:41:06.996Z,1.14
2023-03-14T23:43:38.544Z,1.25
2023-03-14T23:46:10.715Z,1.07
2023-03-14T23:48:42.477Z,1.00
2023-03-14T23:51:14.988Z,0.89
2023-03-14T23:53:46.845Z,0.92
2023-03-14T23:56:18.367Z,1.21
2023-03-14T23:58:51.231Z,1.30
